createdAt,value
2019-01-21T00:01:03.920Z,16.05
2019-01-21T00:02:21.007Z,15.08
2019-01-21T00:03:38.200Z,14.63
2019-01-21T00:04:54.595Z,16.20
2019-01-21T00:06:11.444Z,16.57
2019-01-21T00:07:28.158Z,19.32
2019-01-21T00:08:44.511Z,15.58
2019-01-21T00:10:00.786Z,14.70
2019-01-21T00:11:17.170Z,17.00
2019-01-21T00:12:33.611Z,16.10
2019-01-21T00:13:50.115Z,16.15
2019-01-21T00:15:06.658Z,15.68
2019-01-21T00:16:23.216Z,14.45
2019-01-21T00:17:39.790Z,14.55
2019-01-21T00:18:56.138Z,15.88
2019-01-21T00:20:12.874Z,22.60
2019-01-21T00:21:29.422Z,15.70
2019-01-21T00:22:46.093Z,15.68
2019-01-21T00:24:03.353Z,14.93
2019-01-21T00:25:19.594Z,17.40
2019-01-21T00:26:36.036Z,13.62
2019-01-21T00:27:53.009Z,13.80
2019-01-21T00:29:09.709Z,14.25
2019-01-21T00:30:26.322Z,15.00
2019-01-21T00:31:42.991Z,15.80
2019-01-21T00:32:59.251Z,14.35
2019-01-21T00:34:15.599Z,14.70
2019-01-21T00:35:32.240Z,15.25
2019-01-21T00:36:48.430Z,15.00
2019-01-21T00:38:04.757Z,16.12
2019-01-21T00:39:21.314Z,15.55
2019-01-21T00:40:37.589Z,15.93
2019-01-21T00:41:53.925Z,19.92
2019-01-21T00:43:10.191Z,16.48
2019-01-21T00:44:27.331Z,16.70
2019-01-21T00:45:43.648Z,24.25
2019-01-21T00:47:00.469Z,24.70
2019-01-21T00:48:17.223Z,19.48
2019-01-21T00:49:33.705Z,18.15
2019-01-21T00:50:50.216Z,16.95
2019-01-21T00:52:06.810Z,17.32
2019-01-21T00:53:23.370Z,22.30
2019-01-21T00:54:39.796Z,29.32
2019-01-21T00:55:56.358Z,27.22
2019-01-21T00:57:13.159Z,18.45
2019-01-21T00:58:29.816Z,19.35
2019-01-21T00:59:46.108Z,18.62
2019-01-21T01:01:02.370Z,17.50
2019-01-21T01:02:19.539Z,19.35
2019-01-21T01:03:35.744Z,17.77
2019-01-21T01:04:51.924Z,19.52
2019-01-21T01:06:08.403Z,17.30
2019-01-21T01:07:24.717Z,21.10
2019-01-21T01:08:41.080Z,21.75
2019-01-21T01:09:57.275Z,20.82
2019-01-21T01:11:13.642Z,17.90
2019-01-21T01:12:30.034Z,17.48
2019-01-21T01:13:46.431Z,20.30
2019-01-21T01:15:02.883Z,25.12
2019-01-21T01:16:19.178Z,23.98
2019-01-21T01:17:37.289Z,22.40
2019-01-21T01:18:54.002Z,18.80
2019-01-21T01:20:10.623Z,17.98
2019-01-21T01:21:26.901Z,21.05
2019-01-21T01:22:43.562Z,19.52
2019-01-21T01:23:59.838Z,21.97
2019-01-21T01:25:16.555Z,19.65
2019-01-21T01:26:32.850Z,21.48
2019-01-21T01:27:49.098Z,23.65
2019-01-21T01:29:06.269Z,26.15
2019-01-21T01:30:22.781Z,28.87
2019-01-21T01:31:39.403Z,23.65
2019-01-21T01:32:56.014Z,22.25
2019-01-21T01:34:12.494Z,20.12
2019-01-21T01:35:28.779Z,23.22
2019-01-21T01:36:45.152Z,21.57
2019-01-21T01:38:01.463Z,18.85
2019-01-21T01:39:17.857Z,18.67
2019-01-21T01:40:34.388Z,19.75
2019-01-21T01:41:50.662Z,19.55
2019-01-21T01:43:06.978Z,17.80
2019-01-21T01:44:23.735Z,19.50
2019-01-21T01:45:40.361Z,21.82
2019-01-21T01:46:57.606Z,19.15
2019-01-21T01:48:14.219Z,20.43
2019-01-21T01:49:30.992Z,19.62
2019-01-21T01:50:47.603Z,20.43
2019-01-21T01:52:04.312Z,19.80
2019-01-21T01:53:21.084Z,20.50
2019-01-21T01:54:38.082Z,22.13
2019-01-21T01:55:54.783Z,20.70
2019-01-21T01:57:11.130Z,20.70
2019-01-21T01:58:27.564Z,21.23
2019-01-21T01:59:43.895Z,19.40
2019-01-21T02:01:00.121Z,21.48
2019-01-21T02:02:16.446Z,20.52
2019-01-21T02:03:33.010Z,19.87
2019-01-21T02:04:49.790Z,21.70
2019-01-21T02:06:06.398Z,22.60
2019-01-21T02:07:23.104Z,21.70
2019-01-21T02:08:39.649Z,21.68
2019-01-21T02:09:56.222Z,23.95
2019-01-21T02:11:12.675Z,21.77
2019-01-21T02:12:29.438Z,21.15
2019-01-21T02:13:45.931Z,22.52
2019-01-21T02:15:02.669Z,23.07
2019-01-21T02:16:19.207Z,21.55
2019-01-21T02:17:35.668Z,21.35
2019-01-21T02:18:52.335Z,21.90
2019-01-21T02:20:09.060Z,23.15
2019-01-21T02:21:25.455Z,23.05
2019-01-21T02:22:42.095Z,22.60
2019-01-21T02:23:58.634Z,23.73
2019-01-21T02:25:14.945Z,22.55
2019-01-21T02:26:31.532Z,22.70
2019-01-21T02:27:47.937Z,20.90
2019-01-21T02:29:04.179Z,21.93
2019-01-21T02:30:20.750Z,20.23
2019-01-21T02:31:37.141Z,21.33
2019-01-21T02:32:53.688Z,21.48
2019-01-21T02:34:10.548Z,21.02
2019-01-21T02:35:26.947Z,22.27
2019-01-21T02:36:43.823Z,22.13
2019-01-21T02:38:00.356Z,21.07
2019-01-21T02:39:17.081Z,21.40
2019-01-21T02:40:33.652Z,21.10
2019-01-21T02:41:50.253Z,21.57
2019-01-21T02:43:06.714Z,20.72
2019-01-21T02:44:24.391Z,22.27
2019-01-21T02:45:41.972Z,22.00
2019-01-21T02:46:58.644Z,22.05
2019-01-21T02:48:15.036Z,20.15
2019-01-21T02:49:31.267Z,22.37
2019-01-21T02:50:48.459Z,20.08
2019-01-21T02:52:31.599Z,22.00
2019-01-21T02:56:00.837Z,20.20
2019-01-21T02:57:17.399Z,20.95
2019-01-21T02:58:34.042Z,21.05
2019-01-21T02:59:50.602Z,23.20
2019-01-21T03:01:07.291Z,21.75
2019-01-21T03:02:23.860Z,20.97
2019-01-21T03:03:40.888Z,20.62
2019-01-21T03:04:57.191Z,23.73
2019-01-21T03:06:13.611Z,22.62
2019-01-21T03:07:30.005Z,23.05
2019-01-21T03:08:46.396Z,22.50
2019-01-21T03:10:02.689Z,22.48
2019-01-21T03:11:18.969Z,21.40
2019-01-21T03:12:36.034Z,21.45
2019-01-21T03:13:52.868Z,22.17
2019-01-21T03:15:09.636Z,20.88
2019-01-21T03:16:26.222Z,21.55
2019-01-21T03:17:42.946Z,21.95
2019-01-21T03:18:59.728Z,21.15
2019-01-21T03:20:16.070Z,21.93
2019-01-21T03:21:32.586Z,21.73
2019-01-21T03:22:49.668Z,21.37
2019-01-21T03:24:06.215Z,21.68
2019-01-21T03:25:22.759Z,21.45
2019-01-21T03:26:39.539Z,22.67
2019-01-21T03:27:55.774Z,21.80
2019-01-21T03:29:12.671Z,19.62
2019-01-21T03:30:29.269Z,20.17
2019-01-21T03:31:46.199Z,20.30
2019-01-21T03:33:03.275Z,21.05
2019-01-21T03:34:19.969Z,19.45
2019-01-21T03:35:36.440Z,19.85
2019-01-21T03:36:53.093Z,19.52
2019-01-21T03:38:09.437Z,21.50
2019-01-21T03:39:26.454Z,20.12
2019-01-21T03:40:42.741Z,19.52
2019-01-21T03:41:59.082Z,18.82
2019-01-21T03:43:15.760Z,20.48
2019-01-21T03:44:32.208Z,20.05
2019-01-21T03:45:48.833Z,19.77
2019-01-21T03:47:05.082Z,19.32
2019-01-21T03:48:21.491Z,19.30
2019-01-21T03:49:38.620Z,19.35
2019-01-21T03:50:55.263Z,18.37
2019-01-21T03:52:11.715Z,20.80
2019-01-21T03:53:28.395Z,18.45
2019-01-21T03:54:45.067Z,19.10
2019-01-21T03:56:01.587Z,19.90
2019-01-21T03:57:44.714Z,17.27
2019-01-21T03:59:27.790Z,16.50
2019-01-21T04:00:45.775Z,16.45
2019-01-21T04:02:02.972Z,17.30
2019-01-21T04:03:19.214Z,16.12
2019-01-21T04:04:35.663Z,16.55
2019-01-21T04:05:52.050Z,16.40
2019-01-21T04:07:08.554Z,17.27
2019-01-21T04:08:25.100Z,17.62
2019-01-21T04:09:41.623Z,17.62
2019-01-21T04:10:58.971Z,17.60
2019-01-21T04:12:15.153Z,18.80
2019-01-21T04:13:31.405Z,18.35
2019-01-21T04:14:47.664Z,16.77
2019-01-21T04:16:03.968Z,18.17
2019-01-21T04:17:21.103Z,19.70
2019-01-21T04:18:37.701Z,18.07
2019-01-21T04:19:54.193Z,20.00
2019-01-21T04:21:10.971Z,18.95
2019-01-21T04:22:27.409Z,18.98
2019-01-21T04:23:43.975Z,19.35
2019-01-21T04:25:00.366Z,19.17
2019-01-21T04:26:16.746Z,20.05
2019-01-21T04:27:33.493Z,20.37
2019-01-21T04:28:49.939Z,18.45
2019-01-21T04:30:06.539Z,18.27
2019-01-21T04:31:22.860Z,18.92
2019-01-21T04:32:39.196Z,19.00
2019-01-21T04:33:55.634Z,17.85
2019-01-21T04:35:12.361Z,18.20
2019-01-21T04:36:29.510Z,18.30
2019-01-21T04:37:46.779Z,17.50
2019-01-21T04:39:03.596Z,17.73
2019-01-21T04:40:19.753Z,18.27
2019-01-21T04:41:36.292Z,17.30
2019-01-21T04:42:52.962Z,17.23
2019-01-21T04:44:09.393Z,18.05
2019-01-21T04:45:25.643Z,17.23
2019-01-21T04:46:42.616Z,17.87
2019-01-21T04:47:59.210Z,18.42
2019-01-21T04:49:15.886Z,17.90
2019-01-21T04:50:32.306Z,19.00
2019-01-21T04:51:48.625Z,19.40
2019-01-21T04:53:04.996Z,18.42
2019-01-21T04:54:21.729Z,18.10
2019-01-21T04:55:38.204Z,18.62
2019-01-21T04:56:54.872Z,19.25
2019-01-21T04:58:11.492Z,19.30
2019-01-21T04:59:27.747Z,20.43
2019-01-21T05:00:44.293Z,19.75
2019-01-21T05:02:01.257Z,19.17
2019-01-21T05:03:17.735Z,19.92
2019-01-21T05:04:33.979Z,18.92
2019-01-21T05:05:50.949Z,20.55
2019-01-21T05:07:08.043Z,20.50
2019-01-21T05:08:24.715Z,19.32
2019-01-21T05:09:41.345Z,20.72
2019-01-21T05:10:57.935Z,20.77
2019-01-21T05:12:14.737Z,19.90
2019-01-21T05:13:31.318Z,19.82
2019-01-21T05:14:47.927Z,20.52
2019-01-21T05:16:04.686Z,19.65
2019-01-21T05:17:21.135Z,20.12
2019-01-21T05:18:41.393Z,18.95
2019-01-21T05:19:56.725Z,20.37
2019-01-21T05:21:13.634Z,17.77
2019-01-21T05:22:30.096Z,19.42
2019-01-21T05:23:46.727Z,20.20
2019-01-21T05:26:07.007Z,19.42
2019-01-21T05:27:23.717Z,19.30
2019-01-21T05:28:40.368Z,18.50
2019-01-21T05:29:57.170Z,19.07
2019-01-21T05:31:13.837Z,18.73
2019-01-21T05:32:30.516Z,18.20
2019-01-21T05:33:47.112Z,17.25
2019-01-21T05:35:03.397Z,17.00
2019-01-21T05:36:19.935Z,17.15
2019-01-21T05:37:36.278Z,16.42
2019-01-21T05:38:52.897Z,17.52
2019-01-21T05:40:10.033Z,16.37
2019-01-21T05:41:26.429Z,18.12
2019-01-21T05:42:42.779Z,17.60
2019-01-21T05:43:59.465Z,18.95
2019-01-21T05:45:16.367Z,19.32
2019-01-21T05:46:59.529Z,18.25
2019-01-21T05:48:48.854Z,17.60
2019-01-21T05:50:20.257Z,17.55
2019-01-21T05:51:36.807Z,18.82
2019-01-21T05:52:53.095Z,18.80
2019-01-21T05:54:09.676Z,18.55
2019-01-21T05:55:26.082Z,19.23
2019-01-21T05:56:42.705Z,18.37
2019-01-21T05:57:59.355Z,19.90
2019-01-21T05:59:16.095Z,20.00
2019-01-21T06:00:32.871Z,18.87
2019-01-21T06:01:49.458Z,18.75
2019-01-21T06:03:05.689Z,19.45
2019-01-21T06:04:22.080Z,19.45
2019-01-21T06:05:38.375Z,20.57
2019-01-21T06:06:55.371Z,19.32
2019-01-21T06:08:11.570Z,21.62
2019-01-21T06:09:27.995Z,21.68
2019-01-21T06:10:44.777Z,20.12
2019-01-21T06:12:01.254Z,38.23
2019-01-21T06:13:17.649Z,29.65
2019-01-21T06:14:34.261Z,31.50
2019-01-21T06:15:50.960Z,21.85
2019-01-21T06:17:07.524Z,28.23
2019-01-21T06:18:23.911Z,19.48
2019-01-21T06:19:40.595Z,20.25
2019-01-21T06:20:56.987Z,19.82
2019-01-21T06:22:13.698Z,20.25
2019-01-21T06:23:30.373Z,20.82
2019-01-21T06:24:46.908Z,18.32
2019-01-21T06:26:03.465Z,18.50
2019-01-21T06:27:20.018Z,19.60
2019-01-21T06:28:36.758Z,18.07
2019-01-21T06:29:53.261Z,18.05
2019-01-21T06:31:10.079Z,17.65
2019-01-21T06:32:26.412Z,20.45
2019-01-21T06:33:42.743Z,19.25
2019-01-21T06:34:59.370Z,25.70
2019-01-21T06:36:15.703Z,19.52
2019-01-21T06:37:32.029Z,19.40
2019-01-21T06:38:48.382Z,20.37
2019-01-21T06:40:05.007Z,18.95
2019-01-21T06:41:21.580Z,23.22
2019-01-21T06:42:38.434Z,20.88
2019-01-21T06:43:55.234Z,20.70
2019-01-21T06:45:11.795Z,18.80
2019-01-21T06:46:28.179Z,19.60
2019-01-21T06:47:44.616Z,26.05
2019-01-21T06:49:04.858Z,28.10
2019-01-21T06:50:19.617Z,35.35
2019-01-21T06:51:36.246Z,21.10
2019-01-21T06:52:52.744Z,20.20
2019-01-21T06:54:09.074Z,21.75
2019-01-21T06:55:52.180Z,21.33
2019-01-21T06:57:35.313Z,19.05
2019-01-21T06:58:51.536Z,19.65
2019-01-21T07:00:07.789Z,19.55
2019-01-21T07:01:24.188Z,20.75
2019-01-21T07:02:40.720Z,21.35
2019-01-21T07:03:57.742Z,19.45
2019-01-21T07:05:14.702Z,19.05
2019-01-21T07:06:31.933Z,18.48
2019-01-21T07:07:48.379Z,17.42
2019-01-21T07:09:04.854Z,18.02
2019-01-21T07:10:21.783Z,17.62
2019-01-21T07:11:38.538Z,17.70
2019-01-21T07:12:55.054Z,17.98
2019-01-21T07:14:11.566Z,17.90
2019-01-21T07:15:28.357Z,19.45
2019-01-21T07:16:44.953Z,19.65
2019-01-21T07:18:04.291Z,19.07
2019-01-21T07:19:21.321Z,17.35
2019-01-21T07:20:38.532Z,19.07
2019-01-21T07:21:55.008Z,18.98
2019-01-21T07:23:11.636Z,18.50
2019-01-21T07:24:28.157Z,19.00
2019-01-21T07:25:44.368Z,18.07
2019-01-21T07:27:00.880Z,19.52
2019-01-21T07:28:17.283Z,19.48
2019-01-21T07:29:33.965Z,19.75
2019-01-21T07:30:50.975Z,20.55
2019-01-21T07:32:07.208Z,19.85
2019-01-21T07:33:23.370Z,19.42
2019-01-21T07:34:39.765Z,18.73
2019-01-21T07:35:56.195Z,18.10
2019-01-21T07:37:12.638Z,19.50
2019-01-21T07:38:29.252Z,19.20
2019-01-21T07:39:45.967Z,18.90
2019-01-21T07:41:02.307Z,20.40
2019-01-21T07:42:18.720Z,19.95
2019-01-21T07:43:35.288Z,18.45
2019-01-21T07:44:51.919Z,19.60
2019-01-21T07:46:08.304Z,18.98
2019-01-21T07:47:24.570Z,19.35
2019-01-21T07:48:40.777Z,19.35
2019-01-21T07:49:57.342Z,19.82
2019-01-21T07:51:14.140Z,18.48
2019-01-21T07:52:31.650Z,19.52
2019-01-21T07:53:47.989Z,18.82
2019-01-21T07:55:04.239Z,18.67
2019-01-21T07:56:20.757Z,17.95
2019-01-21T07:57:37.352Z,18.85
2019-01-21T07:58:54.698Z,18.20
2019-01-21T08:00:11.031Z,18.40
2019-01-21T08:01:27.251Z,19.35
2019-01-21T08:02:44.049Z,19.85
2019-01-21T08:04:00.587Z,19.65
2019-01-21T08:05:17.208Z,20.68
2019-01-21T08:06:34.263Z,18.85
2019-01-21T08:07:50.572Z,19.02
2019-01-21T08:09:07.243Z,19.98
2019-01-21T08:10:23.619Z,19.73
2019-01-21T08:11:40.563Z,19.20
2019-01-21T08:12:57.016Z,18.40
2019-01-21T08:14:13.373Z,18.27
2019-01-21T08:15:29.949Z,18.00
2019-01-21T08:16:46.504Z,18.85
2019-01-21T08:18:02.987Z,17.85
2019-01-21T08:19:24.272Z,17.35
2019-01-21T08:20:37.331Z,18.00
2019-01-21T08:21:53.531Z,17.40
2019-01-21T08:23:09.880Z,18.62
2019-01-21T08:24:26.732Z,19.10
2019-01-21T08:25:43.023Z,17.87
2019-01-21T08:27:00.143Z,19.40
2019-01-21T08:28:17.279Z,19.17
2019-01-21T08:29:34.183Z,22.82
2019-01-21T08:30:50.427Z,18.90
2019-01-21T08:32:06.774Z,20.45
2019-01-21T08:33:23.479Z,18.90
2019-01-21T08:34:39.854Z,17.27
2019-01-21T08:35:56.402Z,17.95
2019-01-21T08:37:12.844Z,21.48
2019-01-21T08:38:29.034Z,17.95
2019-01-21T08:39:45.567Z,22.13
2019-01-21T08:41:01.831Z,18.45
2019-01-21T08:42:18.069Z,18.23
2019-01-21T08:43:34.407Z,19.15
2019-01-21T08:44:50.622Z,20.30
2019-01-21T08:46:07.325Z,18.45
2019-01-21T08:47:23.936Z,17.65
2019-01-21T08:48:40.442Z,19.10
2019-01-21T08:49:56.900Z,17.92
2019-01-21T08:51:13.177Z,16.65
2019-01-21T08:52:29.939Z,17.82
2019-01-21T08:53:46.514Z,15.30
2019-01-21T08:55:03.119Z,16.62
2019-01-21T08:56:19.691Z,17.95
2019-01-21T08:57:37.463Z,17.75
2019-01-21T08:58:53.966Z,16.30
2019-01-21T09:00:10.627Z,17.12
2019-01-21T09:01:26.990Z,18.40
2019-01-21T09:02:44.035Z,17.10
2019-01-21T09:04:00.470Z,17.20
2019-01-21T09:05:16.863Z,18.07
2019-01-21T09:06:33.207Z,17.57
2019-01-21T09:07:49.465Z,19.45
2019-01-21T09:09:05.820Z,18.20
2019-01-21T09:10:22.280Z,18.92
2019-01-21T09:11:38.943Z,18.73
2019-01-21T09:12:55.491Z,19.35
2019-01-21T09:14:11.707Z,20.55
2019-01-21T09:15:28.127Z,19.35
2019-01-21T09:16:44.540Z,19.02
2019-01-21T09:18:01.035Z,19.87
2019-01-21T09:19:17.458Z,19.92
2019-01-21T09:20:33.791Z,19.55
2019-01-21T09:21:50.060Z,20.08
2019-01-21T09:23:06.696Z,20.27
2019-01-21T09:24:23.549Z,19.80
2019-01-21T09:25:40.148Z,18.23
2019-01-21T09:26:56.693Z,20.15
2019-01-21T09:28:13.409Z,20.35
2019-01-21T09:29:30.068Z,19.87
2019-01-21T09:30:46.694Z,18.50
2019-01-21T09:32:03.200Z,20.55
2019-01-21T09:33:19.739Z,19.12
2019-01-21T09:34:36.082Z,20.50
2019-01-21T09:35:52.980Z,19.57
2019-01-21T09:37:09.698Z,19.70
2019-01-21T09:38:25.945Z,19.07
2019-01-21T09:39:42.127Z,18.75
2019-01-21T09:40:58.723Z,19.62
2019-01-21T09:42:15.128Z,20.27
2019-01-21T09:43:31.404Z,18.00
2019-01-21T09:44:48.486Z,19.02
2019-01-21T09:46:05.235Z,19.30
2019-01-21T09:47:21.537Z,20.17
2019-01-21T09:48:37.727Z,20.72
2019-01-21T09:49:54.123Z,19.92
2019-01-21T09:51:10.664Z,20.97
2019-01-21T09:52:27.203Z,19.20
2019-01-21T09:53:43.760Z,19.98
2019-01-21T09:55:00.193Z,20.23
2019-01-21T09:56:16.558Z,19.60
2019-01-21T09:57:33.467Z,18.55
2019-01-21T09:58:49.731Z,19.25
2019-01-21T10:00:06.427Z,19.55
2019-01-21T10:01:23.794Z,20.75
2019-01-21T10:02:40.031Z,20.12
2019-01-21T10:03:56.457Z,20.45
2019-01-21T10:05:12.848Z,21.90
2019-01-21T10:06:29.082Z,23.22
2019-01-21T10:07:45.694Z,21.23
2019-01-21T10:09:02.394Z,19.95
2019-01-21T10:10:20.016Z,20.20
2019-01-21T10:11:36.776Z,24.45
2019-01-21T10:12:53.476Z,23.80
2019-01-21T10:14:10.011Z,20.45
2019-01-21T10:15:26.367Z,23.07
2019-01-21T10:16:42.635Z,26.70
2019-01-21T10:17:59.783Z,21.87
2019-01-21T10:19:16.895Z,23.57
2019-01-21T10:20:33.415Z,24.30
2019-01-21T10:21:49.781Z,22.98
2019-01-21T10:23:06.479Z,23.55
2019-01-21T10:24:23.116Z,25.55
2019-01-21T10:25:39.750Z,28.80
2019-01-21T10:26:56.395Z,22.67
2019-01-21T10:28:12.955Z,20.92
2019-01-21T10:29:29.745Z,20.80
2019-01-21T10:30:46.939Z,20.40
2019-01-21T10:32:03.332Z,20.88
2019-01-21T10:33:19.829Z,20.70
2019-01-21T10:34:36.452Z,20.32
2019-01-21T10:35:52.949Z,23.35
2019-01-21T10:37:09.329Z,21.33
2019-01-21T10:38:25.530Z,35.43
2019-01-21T10:39:41.907Z,29.95
2019-01-21T10:40:58.975Z,23.62
2019-01-21T10:42:15.460Z,22.48
2019-01-21T10:43:31.771Z,21.85
2019-01-21T10:44:48.043Z,23.75
2019-01-21T10:46:04.254Z,22.85
2019-01-21T10:47:20.512Z,22.32
2019-01-21T10:48:37.012Z,23.70
2019-01-21T10:49:57.239Z,22.13
2019-01-21T10:51:11.299Z,23.12
2019-01-21T10:52:27.482Z,25.60
2019-01-21T10:53:43.699Z,25.30
2019-01-21T10:55:00.463Z,24.18
2019-01-21T10:56:16.843Z,26.30
2019-01-21T10:57:33.340Z,27.07
2019-01-21T10:58:49.734Z,24.55
2019-01-21T11:00:05.898Z,25.72
2019-01-21T11:01:23.027Z,27.37
2019-01-21T11:02:39.620Z,27.15
2019-01-21T11:03:57.267Z,26.17
2019-01-21T11:05:14.436Z,26.27
2019-01-21T11:06:31.072Z,27.48
2019-01-21T11:07:48.709Z,25.00
2019-01-21T11:09:06.895Z,26.20
2019-01-21T11:10:23.247Z,25.85
2019-01-21T11:11:40.013Z,24.55
2019-01-21T11:12:56.478Z,27.07
2019-01-21T11:14:14.243Z,24.00
2019-01-21T11:15:30.578Z,26.73
2019-01-21T11:16:47.330Z,23.70
2019-01-21T11:18:04.170Z,23.27
2019-01-21T11:19:22.099Z,25.62
2019-01-21T11:20:38.669Z,26.27
2019-01-21T11:21:55.863Z,26.65
2019-01-21T11:23:12.459Z,24.87
2019-01-21T11:24:29.050Z,25.68
2019-01-21T11:25:45.238Z,25.05
2019-01-21T11:27:02.849Z,24.35
2019-01-21T11:28:19.555Z,23.83
2019-01-21T11:29:35.727Z,27.98
2019-01-21T11:30:52.086Z,24.30
2019-01-21T11:32:08.515Z,24.37
2019-01-21T11:33:24.743Z,23.67
2019-01-21T11:34:41.395Z,24.27
2019-01-21T11:35:57.731Z,26.97
2019-01-21T11:37:14.012Z,25.17
2019-01-21T11:38:30.292Z,22.20
2019-01-21T11:39:47.457Z,25.12
2019-01-21T11:41:04.005Z,24.10
2019-01-21T11:42:20.458Z,24.35
2019-01-21T11:43:37.183Z,23.10
2019-01-21T11:44:54.734Z,22.32
2019-01-21T11:46:11.296Z,23.30
2019-01-21T11:47:27.835Z,23.80
2019-01-21T11:48:44.123Z,23.15
2019-01-21T11:50:00.552Z,22.20
2019-01-21T11:51:17.700Z,23.80
2019-01-21T11:52:34.221Z,23.50
2019-01-21T11:53:50.433Z,23.18
2019-01-21T11:55:07.756Z,23.07
2019-01-21T11:56:24.560Z,20.88
2019-01-21T11:57:40.806Z,21.75
2019-01-21T11:58:57.138Z,23.02
2019-01-21T12:00:14.010Z,24.32
2019-01-21T12:01:30.242Z,21.82
2019-01-21T12:02:46.645Z,24.43
2019-01-21T12:04:03.256Z,23.95
2019-01-21T12:05:19.794Z,24.67
2019-01-21T12:06:36.139Z,25.80
2019-01-21T12:07:52.399Z,24.23
2019-01-21T12:09:09.493Z,24.52
2019-01-21T12:10:25.784Z,24.47
2019-01-21T12:11:41.908Z,25.88
2019-01-21T12:12:58.200Z,23.67
2019-01-21T12:14:15.196Z,23.15
2019-01-21T12:15:31.591Z,22.40
2019-01-21T12:16:47.879Z,22.10
2019-01-21T12:18:04.590Z,21.93
2019-01-21T12:19:21.467Z,22.55
2019-01-21T12:20:37.731Z,22.82
2019-01-21T12:21:54.462Z,21.73
2019-01-21T12:23:10.901Z,22.35
2019-01-21T12:24:27.730Z,21.48
2019-01-21T12:25:44.263Z,22.80
2019-01-21T12:27:00.744Z,22.60
2019-01-21T12:28:17.236Z,21.20
2019-01-21T12:29:33.551Z,22.70
2019-01-21T12:30:49.914Z,22.00
2019-01-21T12:32:07.094Z,22.20
2019-01-21T12:33:23.249Z,22.22
2019-01-21T12:34:39.789Z,22.02
2019-01-21T12:35:56.470Z,23.12
2019-01-21T12:37:13.535Z,22.65
2019-01-21T12:38:30.511Z,23.42
2019-01-21T12:39:47.148Z,21.62
2019-01-21T12:41:03.731Z,22.98
2019-01-21T12:42:20.120Z,22.30
2019-01-21T12:43:36.535Z,22.50
2019-01-21T12:44:53.407Z,22.22
2019-01-21T12:46:09.774Z,22.45
2019-01-21T12:47:27.495Z,21.30
2019-01-21T12:48:43.830Z,21.00
2019-01-21T12:50:00.234Z,22.62
2019-01-21T12:51:16.727Z,24.05
2019-01-21T12:52:33.179Z,22.00
2019-01-21T12:53:49.402Z,26.27
2019-01-21T12:55:05.747Z,25.02
2019-01-21T12:56:22.235Z,27.37
2019-01-21T12:57:38.471Z,22.10
2019-01-21T12:58:55.644Z,22.58
2019-01-21T13:00:12.559Z,24.85
2019-01-21T13:01:29.277Z,21.00
2019-01-21T13:02:45.693Z,23.25
2019-01-21T13:04:02.391Z,26.30
2019-01-21T13:05:18.974Z,21.45
2019-01-21T13:06:35.467Z,22.37
2019-01-21T13:07:52.068Z,23.12
2019-01-21T13:09:08.433Z,22.20
2019-01-21T13:10:24.965Z,23.87
2019-01-21T13:11:41.250Z,26.73
2019-01-21T13:12:58.369Z,27.42
2019-01-21T13:14:15.484Z,23.15
2019-01-21T13:15:32.143Z,23.30
2019-01-21T13:16:48.685Z,24.77
2019-01-21T13:18:05.059Z,21.20
2019-01-21T13:19:22.651Z,24.55
2019-01-21T13:20:39.187Z,21.87
2019-01-21T13:21:55.354Z,24.00
2019-01-21T13:23:11.813Z,22.10
2019-01-21T13:24:27.990Z,23.92
2019-01-21T13:25:44.627Z,24.30
2019-01-21T13:27:01.836Z,23.73
2019-01-21T13:28:18.386Z,23.25
2019-01-21T13:29:34.871Z,22.17
2019-01-21T13:30:51.428Z,25.10
2019-01-21T13:32:08.118Z,22.13
2019-01-21T13:33:24.669Z,22.77
2019-01-21T13:34:41.260Z,21.93
2019-01-21T13:35:57.915Z,22.77
2019-01-21T13:37:15.611Z,21.93
2019-01-21T13:38:32.238Z,23.55
2019-01-21T13:39:49.030Z,21.30
2019-01-21T13:41:05.713Z,21.48
2019-01-21T13:42:22.645Z,21.45
2019-01-21T13:43:39.239Z,20.77
2019-01-21T13:44:55.810Z,21.25
2019-01-21T13:46:12.086Z,21.55
2019-01-21T13:47:28.823Z,21.87
2019-01-21T13:48:45.435Z,20.92
2019-01-21T13:50:02.100Z,21.62
2019-01-21T13:51:18.936Z,21.00
2019-01-21T13:52:35.463Z,20.85
2019-01-21T13:53:52.146Z,21.10
2019-01-21T13:55:08.654Z,21.12
2019-01-21T13:56:25.401Z,21.55
2019-01-21T13:57:42.075Z,19.90
2019-01-21T13:58:58.721Z,20.50
2019-01-21T14:00:15.511Z,20.02
2019-01-21T14:01:32.714Z,20.55
2019-01-21T14:02:48.981Z,20.70
2019-01-21T14:04:06.122Z,20.65
2019-01-21T14:05:22.605Z,22.40
2019-01-21T14:06:38.779Z,21.90
2019-01-21T14:07:55.885Z,21.00
2019-01-21T14:09:12.980Z,21.33
2019-01-21T14:10:29.949Z,22.00
2019-01-21T14:11:46.495Z,21.15
2019-01-21T14:13:02.977Z,21.40
2019-01-21T14:14:19.598Z,21.65
2019-01-21T14:15:36.083Z,20.05
2019-01-21T14:16:52.386Z,21.45
2019-01-21T14:18:08.817Z,21.02
2019-01-21T14:19:26.349Z,22.42
2019-01-21T14:20:43.715Z,21.20
2019-01-21T14:22:00.231Z,21.00
2019-01-21T14:23:16.755Z,20.17
2019-01-21T14:24:33.347Z,20.48
2019-01-21T14:25:49.976Z,21.85
2019-01-21T14:27:06.586Z,17.73
2019-01-21T14:28:22.872Z,19.27
2019-01-21T14:29:39.663Z,21.00
2019-01-21T14:30:56.152Z,31.97
2019-01-21T14:32:12.603Z,23.02
2019-01-21T14:33:29.181Z,21.20
2019-01-21T14:34:46.031Z,21.90
2019-01-21T14:36:02.529Z,22.25
2019-01-21T14:37:18.983Z,21.85
2019-01-21T14:38:35.595Z,21.00
2019-01-21T14:39:52.280Z,24.92
2019-01-21T14:41:09.359Z,20.70
2019-01-21T14:42:25.906Z,23.65
2019-01-21T14:43:42.822Z,20.95
2019-01-21T14:44:59.360Z,23.40
2019-01-21T14:46:15.918Z,20.60
2019-01-21T14:47:32.335Z,22.32
2019-01-21T14:48:48.703Z,20.40
2019-01-21T14:50:05.017Z,21.30
2019-01-21T14:51:21.381Z,21.85
2019-01-21T14:52:38.021Z,21.50
2019-01-21T14:53:55.047Z,22.22
2019-01-21T14:55:11.423Z,21.23
2019-01-21T14:56:27.735Z,20.52
2019-01-21T14:57:44.139Z,22.95
2019-01-21T14:59:00.916Z,23.40
2019-01-21T15:00:18.213Z,19.17
2019-01-21T15:01:34.676Z,23.22
2019-01-21T15:02:51.317Z,23.07
2019-01-21T15:04:07.621Z,21.65
2019-01-21T15:05:24.173Z,33.83
2019-01-21T15:06:40.708Z,22.17
2019-01-21T15:07:57.120Z,21.97
2019-01-21T15:09:13.563Z,19.90
2019-01-21T15:10:30.134Z,20.82
2019-01-21T15:11:46.539Z,22.10
2019-01-21T15:13:03.388Z,22.07
2019-01-21T15:14:19.856Z,21.48
2019-01-21T15:15:36.453Z,21.65
2019-01-21T15:16:52.910Z,20.80
2019-01-21T15:18:10.214Z,22.02
2019-01-21T15:19:26.724Z,21.10
2019-01-21T15:20:43.567Z,25.62
2019-01-21T15:22:00.301Z,21.17
2019-01-21T15:23:16.756Z,22.35
2019-01-21T15:24:33.266Z,25.25
2019-01-21T15:25:50.019Z,21.12
2019-01-21T15:27:07.152Z,19.73
2019-01-21T15:28:23.552Z,22.40
2019-01-21T15:29:40.045Z,22.60
2019-01-21T15:30:56.428Z,26.62
2019-01-21T15:32:12.701Z,21.77
2019-01-21T15:33:29.363Z,25.60
2019-01-21T15:34:46.011Z,22.25
2019-01-21T15:36:02.682Z,22.80
2019-01-21T15:37:20.388Z,20.48
2019-01-21T15:38:37.852Z,21.60
2019-01-21T15:39:55.019Z,21.60
2019-01-21T15:41:11.528Z,22.32
2019-01-21T15:42:29.040Z,21.45
2019-01-21T15:43:45.493Z,22.17
2019-01-21T15:45:01.747Z,21.85
2019-01-21T15:46:18.079Z,21.12
2019-01-21T15:47:45.068Z,24.10
2019-01-21T15:49:28.147Z,22.73
2019-01-21T15:50:44.406Z,20.95
2019-01-21T15:52:01.179Z,22.15
2019-01-21T15:53:17.832Z,21.68
2019-01-21T15:54:34.388Z,20.85
2019-01-21T15:55:51.100Z,21.55
2019-01-21T15:57:07.733Z,25.10
2019-01-21T15:58:24.529Z,21.65
2019-01-21T15:59:42.954Z,22.30
2019-01-21T16:00:59.572Z,21.77
2019-01-21T16:02:16.196Z,21.27
2019-01-21T16:03:32.982Z,22.27
2019-01-21T16:04:49.532Z,22.40
2019-01-21T16:06:06.121Z,22.35
2019-01-21T16:07:22.527Z,21.50
2019-01-21T16:08:39.492Z,22.20
2019-01-21T16:09:55.937Z,23.10
2019-01-21T16:11:12.208Z,23.50
2019-01-21T16:12:28.709Z,23.77
2019-01-21T16:13:46.340Z,23.02
2019-01-21T16:15:05.141Z,22.22
2019-01-21T16:16:21.567Z,22.70
2019-01-21T16:17:38.148Z,21.70
2019-01-21T16:18:54.746Z,24.12
2019-01-21T16:20:11.202Z,23.83
2019-01-21T16:21:27.686Z,23.05
2019-01-21T16:22:43.963Z,23.27
2019-01-21T16:24:00.367Z,24.12
2019-01-21T16:25:16.901Z,23.62
2019-01-21T16:26:33.454Z,23.50
2019-01-21T16:27:49.854Z,23.30
2019-01-21T16:29:06.061Z,23.40
2019-01-21T16:30:22.423Z,24.47
2019-01-21T16:31:39.018Z,23.52
2019-01-21T16:32:55.543Z,23.10
2019-01-21T16:34:11.708Z,23.40